Hlavní strana
METAR-TAF:

METAR-TAF

Letiště :

Lappeenranta, Finsko

zeměpisná šířka: 61-02-45N, zeměpisná délka: 028-08-55E, výška: 106 m

Aktuální stav počasí

Zpráva byla vytvořena před 13 minutami, v 22:50 UTC
Jihojihozápadní vítr 9 kt, proměnlivý mezi jižním a západojihozápadním
Teplota 7°C
Vlhkost vzduchu 93%
Tlak 1031 hPa
Viditelnost 10 km a více
Zataženo ve výšce 1100 ft

METAR: EFLP 152250Z AUTO 21009KT 170V240 9999 OVC011 07/06 Q1031

Čas: 01:03 (23:03 UTC)


TAF: chybějící

Stav a předpovědi počasí z více než 4 000 letišť (zprávy METAR a TAF).

Červené a žluté tečky na mapě představují dostupné meteorologické stanice.

Když kurzor umístíte na tečku, zobrazí se název stanice.

Pak kliknutím zobrazíte stav a předpověď počasí.

Chcete-li změnit mapu, kliknutím na zelené tlačítko se znaménkem +mapu přiblížíte, kliknutím na zelené tlačítko se znaménkem – mapu oddálíte a kliknutím na zelené šipky přejdete na sousední mapy.


METAR-TAF: